createdAt,value
2023-03-08T00:01:39.530Z,97233.88
2023-03-08T00:04:11.974Z,97228.13
2023-03-08T00:06:47.945Z,97227.56
2023-03-08T00:09:16.692Z,97235.97
2023-03-08T00:11:45.515Z,97244.94
2023-03-08T00:14:14.286Z,97253.13
2023-03-08T00:16:43.017Z,97255.66
2023-03-08T00:19:13.228Z,97263.25
2023-03-08T00:21:42.102Z,97267.41
2023-03-08T00:24:12.081Z,97262.56
2023-03-08T00:26:40.850Z,97264.50
2023-03-08T00:29:09.636Z,97267.25
2023-03-08T00:31:38.725Z,97270.84
2023-03-08T00:34:07.713Z,97287.34
2023-03-08T00:36:37.931Z,97278.88
2023-03-08T00:39:07.210Z,97280.47
2023-03-08T00:41:38.425Z,97273.91
2023-03-08T00:44:07.305Z,97287.13
2023-03-08T00:46:36.484Z,97286.66
2023-03-08T00:49:05.594Z,97289.53
2023-03-08T00:51:34.609Z,97303.22
2023-03-08T00:54:05.478Z,97298.38
2023-03-08T00:56:34.316Z,97298.72
2023-03-08T00:59:03.155Z,97304.28
2023-03-08T01:01:31.989Z,97292.00
2023-03-08T01:04:00.996Z,97294.88
2023-03-08T01:06:29.852Z,97299.47
2023-03-08T01:08:58.554Z,97309.50
2023-03-08T01:11:29.251Z,97306.38
2023-03-08T01:13:58.041Z,97308.94
2023-03-08T01:16:30.747Z,97312.13
2023-03-08T01:19:02.770Z,97316.16
2023-03-08T01:21:33.477Z,97313.28
2023-03-08T01:24:02.227Z,97307.47
2023-03-08T01:26:32.410Z,97305.53
2023-03-08T01:29:02.339Z,97305.66
2023-03-08T01:31:32.648Z,97302.53
2023-03-08T01:34:02.256Z,97306.22
2023-03-08T01:36:31.150Z,97301.97
2023-03-08T01:39:02.487Z,97293.34
2023-03-08T01:41:33.599Z,97293.84
2023-03-08T01:44:03.273Z,97286.84
2023-03-08T01:46:33.946Z,97275.38
2023-03-08T01:49:27.110Z,97295.25
2023-03-08T01:52:04.399Z,97290.31
2023-03-08T01:54:40.982Z,97304.81
2023-03-08T01:57:21.799Z,97309.88
2023-03-08T01:59:53.029Z,97304.91
2023-03-08T02:02:31.997Z,97302.06
2023-03-08T02:05:01.234Z,97299.53
2023-03-08T02:07:32.359Z,97299.63
2023-03-08T02:10:01.432Z,97300.09
2023-03-08T02:12:32.381Z,97294.69
2023-03-08T02:15:04.500Z,97285.94
2023-03-08T02:17:38.150Z,97291.75
2023-03-08T02:20:18.159Z,97298.53
2023-03-08T02:22:50.255Z,97288.78
2023-03-08T02:25:22.857Z,97292.78
2023-03-08T02:27:54.277Z,97293.84
2023-03-08T02:30:28.556Z,97283.41
2023-03-08T02:32:57.431Z,97294.09
2023-03-08T02:35:30.980Z,97284.66
2023-03-08T02:38:01.312Z,97282.16
2023-03-08T02:40:30.128Z,97284.38
2023-03-08T02:42:58.792Z,97293.91
2023-03-08T02:45:27.451Z,97299.19
2023-03-08T02:47:56.198Z,97294.81
2023-03-08T02:50:25.597Z,97294.81
2023-03-08T02:52:54.283Z,97303.31
2023-03-08T02:55:24.297Z,97297.44
2023-03-08T02:57:53.130Z,97290.44
2023-03-08T03:00:23.051Z,97296.03
2023-03-08T03:02:51.804Z,97304.31
2023-03-08T03:05:22.018Z,97307.91
2023-03-08T03:07:50.760Z,97304.81
2023-03-08T03:10:23.443Z,97309.88
2023-03-08T03:12:52.191Z,97310.78
2023-03-08T03:15:23.856Z,97302.38
2023-03-08T03:17:57.492Z,97303.41
2023-03-08T03:20:26.709Z,97302.59
2023-03-08T03:22:55.325Z,97297.31
2023-03-08T03:25:31.143Z,97308.78
2023-03-08T03:27:59.830Z,97306.53
2023-03-08T03:30:30.331Z,97310.53
2023-03-08T03:32:59.191Z,97311.09
2023-03-08T03:35:32.323Z,97311.91
2023-03-08T03:38:01.350Z,97308.25
2023-03-08T03:40:31.667Z,97311.72
2023-03-08T03:43:03.351Z,97328.00
2023-03-08T03:45:32.136Z,97316.19
2023-03-08T03:48:00.878Z,97320.44
2023-03-08T03:50:35.363Z,97319.16
2023-03-08T03:53:09.970Z,97318.38
2023-03-08T03:55:40.116Z,97335.03
2023-03-08T03:58:09.449Z,97336.66
2023-03-08T04:00:38.390Z,97327.69
2023-03-08T04:03:19.744Z,97326.66
2023-03-08T04:05:49.166Z,97325.63
2023-03-08T04:08:18.318Z,97333.00
2023-03-08T04:10:48.653Z,97323.22
2023-03-08T04:13:22.194Z,97329.88
2023-03-08T04:15:51.376Z,97339.44
2023-03-08T04:18:20.528Z,97339.66
2023-03-08T04:20:49.289Z,97333.78
2023-03-08T04:23:20.317Z,97340.47
2023-03-08T04:25:54.946Z,97344.22
2023-03-08T04:28:25.158Z,97329.75
2023-03-08T04:30:54.067Z,97345.19
2023-03-08T04:33:25.688Z,97319.53
2023-03-08T04:35:54.805Z,97337.53
2023-03-08T04:38:26.492Z,97329.84
2023-03-08T04:44:24.514Z,97325.50
2023-03-08T04:46:54.915Z,97323.66
2023-03-08T04:49:58.366Z,97323.88
2023-03-08T04:52:29.403Z,97326.06
2023-03-08T04:55:00.962Z,97321.25
2023-03-08T04:57:31.757Z,97326.31
2023-03-08T05:00:06.016Z,97329.19
2023-03-08T05:02:41.778Z,97330.56
2023-03-08T05:05:18.056Z,97328.59
2023-03-08T05:07:47.535Z,97335.03
2023-03-08T05:10:19.920Z,97322.19
2023-03-08T05:13:01.453Z,97325.63
2023-03-08T05:15:34.042Z,97334.59
2023-03-08T05:18:10.655Z,97325.63
2023-03-08T05:20:41.773Z,97335.75
2023-03-08T05:23:16.204Z,97331.06
2023-03-08T05:25:46.764Z,97329.22
2023-03-08T05:28:19.883Z,97320.06
2023-03-08T05:30:49.369Z,97326.88
2023-03-08T05:33:25.891Z,97335.69
2023-03-08T05:35:58.204Z,97342.41
2023-03-08T05:38:35.171Z,97343.28
2023-03-08T05:41:12.657Z,97350.56
2023-03-08T05:43:45.890Z,97348.91
2023-03-08T05:46:25.040Z,97341.94
2023-03-08T05:48:55.018Z,97342.31
2023-03-08T05:51:24.293Z,97346.31
2023-03-08T05:53:55.565Z,97346.69
2023-03-08T05:56:25.513Z,97359.69
2023-03-08T05:59:14.958Z,97360.47
2023-03-08T06:02:07.214Z,97335.66
2023-03-08T06:04:47.190Z,97350.72
2023-03-08T06:07:21.634Z,97351.97
2023-03-08T06:09:56.728Z,97350.28
2023-03-08T06:12:26.340Z,97352.44
2023-03-08T06:15:00.172Z,97348.78
2023-03-08T06:17:57.294Z,97357.16
2023-03-08T06:20:28.390Z,97352.69
2023-03-08T06:22:58.827Z,97367.31
2023-03-08T06:25:34.173Z,97364.06
2023-03-08T06:28:03.422Z,97362.56
2023-03-08T06:30:41.863Z,97369.06
2023-03-08T06:33:10.707Z,97360.22
2023-03-08T06:35:39.592Z,97342.25
2023-03-08T06:38:08.443Z,97344.91
2023-03-08T06:40:39.250Z,97347.59
2023-03-08T06:43:08.411Z,97338.09
2023-03-08T06:45:41.074Z,97332.22
2023-03-08T06:48:10.088Z,97330.19
2023-03-08T06:50:39.159Z,97340.66
2023-03-08T06:53:08.510Z,97332.38
2023-03-08T06:55:55.089Z,97331.47
2023-03-08T06:58:36.424Z,97339.06
2023-03-08T07:01:09.789Z,97338.63
2023-03-08T07:03:39.034Z,97345.53
2023-03-08T07:06:10.634Z,97341.16
2023-03-08T07:08:51.922Z,97348.28
2023-03-08T07:11:34.349Z,97343.44
2023-03-08T07:14:05.898Z,97353.72
2023-03-08T07:16:36.276Z,97361.19
2023-03-08T07:19:05.342Z,97353.34
2023-03-08T07:21:40.206Z,97358.19
2023-03-08T07:24:11.737Z,97355.31
2023-03-08T07:26:40.808Z,97359.47
2023-03-08T07:29:09.683Z,97359.00
2023-03-08T07:31:39.983Z,97348.72
2023-03-08T07:34:11.993Z,97359.66
2023-03-08T07:36:51.171Z,97356.69
2023-03-08T07:39:20.113Z,97354.03
2023-03-08T07:41:51.232Z,97351.41
2023-03-08T07:44:20.175Z,97343.00
2023-03-08T07:46:50.388Z,97348.44
2023-03-08T07:49:19.119Z,97344.13
2023-03-08T07:51:52.536Z,97348.31
2023-03-08T07:54:24.533Z,97347.72
2023-03-08T07:56:54.027Z,97348.50
2023-03-08T07:59:22.813Z,97351.53
2023-03-08T08:01:53.055Z,97346.34
2023-03-08T08:04:24.533Z,97346.59
2023-03-08T08:06:53.287Z,97347.25
2023-03-08T08:09:25.230Z,97334.94
2023-03-08T08:11:57.361Z,97336.06
2023-03-08T08:14:26.182Z,97327.56
2023-03-08T08:16:56.352Z,97325.44
2023-03-08T08:19:25.614Z,97332.56
2023-03-08T08:22:05.501Z,97324.63
2023-03-08T08:24:34.879Z,97329.00
2023-03-08T08:27:03.873Z,97328.41
2023-03-08T08:29:34.945Z,97320.16
2023-03-08T08:32:06.879Z,97328.00
2023-03-08T08:34:38.505Z,97323.38
2023-03-08T08:37:07.351Z,97320.63
2023-03-08T08:39:44.290Z,97315.09
2023-03-08T08:42:13.115Z,97313.06
2023-03-08T08:44:41.920Z,97321.56
2023-03-08T08:47:12.645Z,97315.22
2023-03-08T08:49:43.328Z,97306.13
2023-03-08T08:52:14.248Z,97294.59
2023-03-08T08:54:46.298Z,97301.97
2023-03-08T08:57:16.487Z,97293.91
2023-03-08T08:59:49.158Z,97297.75
2023-03-08T09:02:19.445Z,97293.59
2023-03-08T09:04:51.593Z,97292.31
2023-03-08T09:07:20.442Z,97285.66
2023-03-08T09:09:55.246Z,97278.06
2023-03-08T09:12:46.058Z,97271.41
2023-03-08T09:15:22.180Z,97272.59
2023-03-08T09:18:01.805Z,97261.50
2023-03-08T09:20:39.375Z,97263.22
2023-03-08T09:23:15.667Z,97256.56
2023-03-08T09:25:48.889Z,97251.59
2023-03-08T09:28:21.592Z,97241.72
2023-03-08T09:31:05.799Z,97242.16
2023-03-08T09:33:44.318Z,97235.53
2023-03-08T09:36:33.177Z,97238.53
2023-03-08T09:39:04.942Z,97232.72
2023-03-08T09:41:51.751Z,97224.63
2023-03-08T09:44:58.463Z,97216.81
2023-03-08T09:47:42.985Z,97208.88
2023-03-08T09:50:36.083Z,97203.56
2023-03-08T09:53:17.603Z,97202.63
2023-03-08T09:55:51.868Z,97205.75
2023-03-08T09:58:33.500Z,97191.56
2023-03-08T10:01:17.727Z,97195.00
2023-03-08T10:04:21.278Z,97187.91
2023-03-08T10:07:18.365Z,97192.78
2023-03-08T10:10:02.643Z,97187.63
2023-03-08T10:12:41.601Z,97188.00
2023-03-08T10:15:18.896Z,97189.09
2023-03-08T10:17:56.909Z,97183.56
2023-03-08T10:20:30.325Z,97184.09
2023-03-08T10:23:03.171Z,97185.59
2023-03-08T10:25:34.566Z,97182.00
2023-03-08T10:28:12.628Z,97175.75
2023-03-08T10:30:46.706Z,97170.16
2023-03-08T10:33:19.427Z,97172.25
2023-03-08T10:36:02.419Z,97167.88
2023-03-08T10:38:36.335Z,97169.06
2023-03-08T10:41:13.220Z,97167.06
2023-03-08T10:43:47.917Z,97161.53
2023-03-08T10:46:19.433Z,97156.53
2023-03-08T10:48:48.998Z,97153.22
2023-03-08T10:51:20.391Z,97152.69
2023-03-08T10:53:58.588Z,97137.16
2023-03-08T10:56:35.462Z,97141.09
2023-03-08T10:59:05.976Z,97140.19
2023-03-08T11:01:48.331Z,97132.81
2023-03-08T11:04:20.046Z,97125.25
2023-03-08T11:06:49.090Z,97119.97
2023-03-08T11:09:26.801Z,97112.59
2023-03-08T11:11:56.994Z,97111.00
2023-03-08T11:14:27.163Z,97098.59
2023-03-08T11:17:19.405Z,97085.63
2023-03-08T11:20:01.127Z,97078.03
2023-03-08T11:22:51.389Z,97075.78
2023-03-08T11:25:35.663Z,97073.78
2023-03-08T11:28:52.568Z,97065.88
2023-03-08T11:31:33.352Z,97058.75
2023-03-08T11:34:52.134Z,97046.47
2023-03-08T11:37:33.314Z,97048.63
2023-03-08T11:40:21.173Z,97041.59
2023-03-08T11:43:10.481Z,97030.53
2023-03-08T11:45:53.357Z,97026.16
2023-03-08T11:48:51.822Z,97017.56
2023-03-08T11:51:31.192Z,97008.69
2023-03-08T11:54:16.278Z,97002.16
2023-03-08T11:56:52.239Z,96992.56
2023-03-08T11:59:35.360Z,96992.38
2023-03-08T12:02:19.714Z,96991.88
2023-03-08T12:05:06.971Z,96985.44
2023-03-08T12:07:42.525Z,96980.16
2023-03-08T12:10:22.306Z,96972.16
2023-03-08T12:12:56.814Z,96975.38
2023-03-08T12:15:34.685Z,96976.34
2023-03-08T12:18:15.779Z,96972.03
2023-03-08T12:20:46.474Z,96967.44
2023-03-08T12:23:27.234Z,96966.75
2023-03-08T12:26:08.539Z,96960.91
2023-03-08T12:28:45.116Z,96958.25
2023-03-08T12:31:29.443Z,96958.66
2023-03-08T12:34:00.852Z,96960.84
2023-03-08T12:36:40.986Z,96960.16
2023-03-08T12:39:27.235Z,96960.31
2023-03-08T12:42:01.933Z,96954.06
2023-03-08T12:44:32.421Z,96953.16
2023-03-08T12:47:20.202Z,96948.84
2023-03-08T12:49:55.166Z,96944.19
2023-03-08T12:52:33.366Z,96944.31
2023-03-08T12:55:09.069Z,96945.72
2023-03-08T12:57:49.250Z,96954.06
2023-03-08T13:00:31.685Z,96956.53
2023-03-08T13:03:06.057Z,96959.66
2023-03-08T13:05:37.847Z,96955.19
2023-03-08T13:08:31.700Z,96956.84
2023-03-08T13:11:12.870Z,96958.50
2023-03-08T13:13:50.920Z,96953.94
2023-03-08T13:16:36.508Z,96955.09
2023-03-08T13:19:29.664Z,96946.75
2023-03-08T13:22:13.502Z,96940.22
2023-03-08T13:24:49.854Z,96936.31
2023-03-08T13:27:34.765Z,96936.00
2023-03-08T13:30:21.523Z,96930.41
2023-03-08T13:32:51.330Z,96938.47
2023-03-08T13:35:22.328Z,96928.41
2023-03-08T13:37:55.801Z,96930.53
2023-03-08T13:40:26.907Z,96921.38
2023-03-08T13:42:57.802Z,96917.66
2023-03-08T13:45:27.549Z,96913.41
2023-03-08T13:47:59.596Z,96911.56
2023-03-08T13:50:35.090Z,96897.81
2023-03-08T13:53:10.439Z,96893.19
2023-03-08T13:55:45.995Z,96875.78
2023-03-08T13:58:27.749Z,96879.31
2023-03-08T14:01:03.418Z,96868.91
2023-03-08T14:03:34.640Z,96874.09
2023-03-08T14:06:05.583Z,96872.50
2023-03-08T14:08:35.088Z,96873.13
2023-03-08T14:11:09.691Z,96875.22
2023-03-08T14:13:42.661Z,96864.69
2023-03-08T14:16:28.429Z,96865.00
2023-03-08T14:18:58.100Z,96852.50
2023-03-08T14:21:31.026Z,96857.34
2023-03-08T14:24:02.552Z,96859.66
2023-03-08T14:26:35.092Z,96856.09
2023-03-08T14:29:14.687Z,96849.56
2023-03-08T14:32:05.722Z,96846.22
2023-03-08T14:34:39.341Z,96845.63
2023-03-08T14:37:23.941Z,96846.28
2023-03-08T14:39:56.227Z,96849.50
2023-03-08T14:42:31.203Z,96846.38
2023-03-08T14:45:04.040Z,96845.91
2023-03-08T14:47:35.001Z,96839.81
2023-03-08T14:50:20.789Z,96818.34
2023-03-08T14:52:54.701Z,96821.00
2023-03-08T14:55:26.698Z,96822.88
2023-03-08T14:58:00.161Z,96824.16
2023-03-08T15:00:30.313Z,96822.56
2023-03-08T15:03:00.286Z,96812.44
2023-03-08T15:05:31.186Z,96800.16
2023-03-08T15:08:01.901Z,96791.88
2023-03-08T15:10:34.797Z,96781.03
2023-03-08T15:13:05.063Z,96784.63
2023-03-08T15:15:33.847Z,96784.59
2023-03-08T15:18:02.555Z,96781.19
2023-03-08T15:20:31.795Z,96785.94
2023-03-08T15:23:07.443Z,96787.84
2023-03-08T15:25:39.677Z,96793.41
2023-03-08T15:28:08.497Z,96787.63
2023-03-08T15:30:37.196Z,96784.72
2023-03-08T15:33:06.089Z,96782.59
2023-03-08T15:35:35.110Z,96773.00
2023-03-08T15:38:05.216Z,96773.00
2023-03-08T15:40:37.115Z,96766.41
2023-03-08T15:43:05.781Z,96760.81
2023-03-08T15:45:35.129Z,96753.31
2023-03-08T15:48:07.560Z,96757.09
2023-03-08T15:50:36.762Z,96755.50
2023-03-08T15:53:08.592Z,96749.72
2023-03-08T15:55:39.958Z,96738.59
2023-03-08T15:58:10.730Z,96750.78
2023-03-08T16:00:40.795Z,96749.50
2023-03-08T16:03:13.854Z,96747.09
2023-03-08T16:05:42.742Z,96743.41
2023-03-08T16:08:13.484Z,96735.38
2023-03-08T16:10:42.152Z,96725.56
2023-03-08T16:13:11.754Z,96735.69
2023-03-08T16:15:41.988Z,96744.16
2023-03-08T16:18:10.838Z,96737.19
2023-03-08T16:20:41.356Z,96741.75
2023-03-08T16:23:12.644Z,96735.88
2023-03-08T16:25:43.411Z,96733.22
2023-03-08T16:28:12.343Z,96727.94
2023-03-08T16:30:43.083Z,96726.91
2023-03-08T16:33:13.277Z,96731.09
2023-03-08T16:35:43.095Z,96723.03
2023-03-08T16:38:13.750Z,96727.06
2023-03-08T16:41:51.353Z,96733.69
2023-03-08T16:44:24.927Z,96730.00
2023-03-08T16:46:54.067Z,96727.28
2023-03-08T16:49:28.557Z,96733.41
2023-03-08T16:51:58.048Z,96722.81
2023-03-08T16:54:29.384Z,96720.41
2023-03-08T16:57:01.074Z,96730.94
2023-03-08T16:59:33.927Z,96728.56
2023-03-08T17:02:02.948Z,96717.41
2023-03-08T17:04:31.798Z,96722.47
2023-03-08T17:07:00.787Z,96719.16
2023-03-08T17:09:31.077Z,96718.41
2023-03-08T17:11:59.977Z,96714.22
2023-03-08T17:14:28.983Z,96711.84
2023-03-08T17:17:00.283Z,96717.69
2023-03-08T17:19:35.650Z,96718.63
2023-03-08T17:22:05.994Z,96707.03
2023-03-08T17:24:39.201Z,96709.72
2023-03-08T17:27:07.967Z,96716.31
2023-03-08T17:29:37.861Z,96702.25
2023-03-08T17:32:07.614Z,96690.09
2023-03-08T17:34:36.859Z,96690.53
2023-03-08T17:37:11.409Z,96689.53
2023-03-08T17:39:42.954Z,96693.19
2023-03-08T17:42:12.314Z,96692.88
2023-03-08T17:44:41.548Z,96691.59
2023-03-08T17:47:13.959Z,96685.81
2023-03-08T17:49:43.144Z,96682.91
2023-03-08T17:52:12.583Z,96687.94
2023-03-08T17:54:42.778Z,96690.09
2023-03-08T17:57:11.833Z,96700.06
2023-03-08T17:59:41.269Z,96697.38
2023-03-08T18:02:12.862Z,96694.50
2023-03-08T18:04:45.163Z,96697.47
2023-03-08T18:07:15.695Z,96707.72
2023-03-08T18:09:49.727Z,96709.25
2023-03-08T18:12:18.838Z,96715.06
2023-03-08T18:15:20.675Z,96710.69
2023-03-08T18:17:49.464Z,96714.34
2023-03-08T18:20:19.987Z,96710.53
2023-03-08T18:22:51.016Z,96706.59
2023-03-08T18:25:22.460Z,96715.19
2023-03-08T18:27:51.222Z,96702.47
2023-03-08T18:30:20.592Z,96699.31
2023-03-08T18:32:51.029Z,96693.50
2023-03-08T18:35:19.997Z,96694.31
2023-03-08T18:37:48.818Z,96690.59
2023-03-08T18:40:18.105Z,96696.66
2023-03-08T18:42:48.233Z,96694.22
2023-03-08T18:45:18.413Z,96694.25
2023-03-08T18:47:51.799Z,96697.66
2023-03-08T18:50:21.886Z,96694.72
2023-03-08T18:52:50.609Z,96701.28
2023-03-08T18:55:19.607Z,96702.63
2023-03-08T18:57:49.685Z,96700.50
2023-03-08T19:00:19.547Z,96698.47
2023-03-08T19:02:48.212Z,96699.81
2023-03-08T19:05:17.742Z,96697.44
2023-03-08T19:07:46.775Z,96696.91
2023-03-08T19:10:15.905Z,96690.53
2023-03-08T19:12:44.878Z,96691.13
2023-03-08T19:15:15.084Z,96686.63
2023-03-08T19:17:43.816Z,96685.00
2023-03-08T19:20:14.455Z,96686.81
2023-03-08T19:22:43.469Z,96687.31
2023-03-08T19:25:13.415Z,96697.63
2023-03-08T19:27:42.096Z,96690.91
2023-03-08T19:30:12.881Z,96690.38
2023-03-08T19:32:43.233Z,96688.88
2023-03-08T19:35:12.273Z,96692.59
2023-03-08T19:37:51.941Z,96687.06
2023-03-08T19:40:21.600Z,96691.31
2023-03-08T19:43:15.282Z,96686.31
2023-03-08T19:45:50.106Z,96690.81
2023-03-08T19:48:21.079Z,96685.50
2023-03-08T19:50:49.866Z,96688.63
2023-03-08T19:53:18.621Z,96691.56
2023-03-08T19:55:51.366Z,96685.22
2023-03-08T19:58:21.431Z,96685.75
2023-03-08T20:00:51.364Z,96678.59
2023-03-08T20:03:22.741Z,96681.78
2023-03-08T20:05:51.772Z,96687.91
2023-03-08T20:08:21.322Z,96685.50
2023-03-08T20:10:50.630Z,96693.19
2023-03-08T20:13:19.637Z,96682.38
2023-03-08T20:15:49.698Z,96686.63
2023-03-08T20:18:18.602Z,96686.63
2023-03-08T20:20:50.359Z,96695.00
2023-03-08T20:23:19.441Z,96697.84
2023-03-08T20:25:48.509Z,96688.84
2023-03-08T20:28:19.509Z,96693.28
2023-03-08T20:30:49.033Z,96691.31
2023-03-08T20:33:19.410Z,96695.13
2023-03-08T20:35:59.059Z,96696.78
2023-03-08T20:38:28.684Z,96698.91
2023-03-08T20:41:03.472Z,96697.38
2023-03-08T20:43:34.038Z,96700.56
2023-03-08T20:46:07.204Z,96705.13
2023-03-08T20:48:38.101Z,96709.63
2023-03-08T20:51:12.694Z,96708.81
2023-03-08T20:53:42.546Z,96706.97
2023-03-08T20:56:15.954Z,96707.50
2023-03-08T20:58:45.522Z,96703.22
2023-03-08T21:01:16.462Z,96701.03
2023-03-08T21:03:46.045Z,96695.72
2023-03-08T21:06:20.237Z,96695.22
2023-03-08T21:08:50.575Z,96693.81
2023-03-08T21:11:19.784Z,96690.31
2023-03-08T21:13:50.574Z,96687.94
2023-03-08T21:16:23.089Z,96683.94
2023-03-08T21:18:53.235Z,96686.03
2023-03-08T21:21:27.344Z,96682.88
2023-03-08T21:23:57.808Z,96678.19
2023-03-08T21:26:29.023Z,96680.31
2023-03-08T21:29:02.413Z,96681.31
2023-03-08T21:31:32.322Z,96682.38
2023-03-08T21:34:03.805Z,96677.91
2023-03-08T21:36:35.243Z,96667.63
2023-03-08T21:39:04.281Z,96666.56
2023-03-08T21:41:35.284Z,96667.13
2023-03-08T21:44:09.442Z,96670.34
2023-03-08T21:46:39.789Z,96668.16
2023-03-08T21:49:10.130Z,96658.91
2023-03-08T21:51:40.228Z,96654.44
2023-03-08T21:54:08.980Z,96652.31
2023-03-08T21:56:37.644Z,96648.59
2023-03-08T21:59:06.721Z,96647.00
2023-03-08T22:01:36.433Z,96656.56
2023-03-08T22:04:06.532Z,96649.63
2023-03-08T22:06:35.229Z,96647.38
2023-03-08T22:09:05.721Z,96650.28
2023-03-08T22:11:34.442Z,96646.38
2023-03-08T22:14:03.331Z,96641.13
2023-03-08T22:16:33.227Z,96636.09
2023-03-08T22:19:03.384Z,96640.13
2023-03-08T22:21:32.560Z,96651.22
2023-03-08T22:24:04.204Z,96643.81
2023-03-08T22:26:33.519Z,96640.53
2023-03-08T22:29:02.236Z,96646.44
2023-03-08T22:31:31.674Z,96635.03
2023-03-08T22:34:01.449Z,96623.13
2023-03-08T22:36:30.398Z,96625.19
2023-03-08T22:38:59.123Z,96627.31
2023-03-08T22:41:29.854Z,96626.69
2023-03-08T22:43:59.268Z,96630.97
2023-03-08T22:46:29.446Z,96624.66
2023-03-08T22:48:59.605Z,96623.38
2023-03-08T22:51:28.881Z,96622.06
2023-03-08T22:53:59.166Z,96624.44
2023-03-08T22:56:31.452Z,96622.38
2023-03-08T22:59:00.405Z,96630.00
2023-03-08T23:01:32.540Z,96630.94
2023-03-08T23:04:03.379Z,96621.47
2023-03-08T23:06:33.732Z,96618.59
2023-03-08T23:09:08.542Z,96621.00
2023-03-08T23:11:39.225Z,96620.19
2023-03-08T23:14:09.112Z,96617.31
2023-03-08T23:16:41.492Z,96608.31
2023-03-08T23:19:14.948Z,96618.41
2023-03-08T23:21:44.604Z,96613.88
2023-03-08T23:24:13.691Z,96611.00
2023-03-08T23:26:45.917Z,96613.41
2023-03-08T23:29:15.979Z,96617.38
2023-03-08T23:31:47.297Z,96625.34
2023-03-08T23:34:16.184Z,96627.97
2023-03-08T23:36:44.857Z,96618.97
2023-03-08T23:39:13.718Z,96612.88
2023-03-08T23:41:45.266Z,96610.00
2023-03-08T23:44:14.252Z,96611.50
2023-03-08T23:46:46.293Z,96600.41
2023-03-08T23:49:16.954Z,96582.38
2023-03-08T23:51:46.451Z,96586.38
2023-03-08T23:54:15.152Z,96580.28
2023-03-08T23:56:45.344Z,96588.22
2023-03-08T23:59:18.475Z,96583.41
